Time;durP1;ratioP1;P1;durP2;ratioP2;P2;SDS_P1;SDS_P2;PMS_P1;PMS_P2;Temp;Humidity;BMP_temperature;BMP_pressure;BME280_temperature;BME280_humidity;BME280_pressure;Samples;Min_cycle;Max_cycle;Signal;HPM_P1;HPM_P2
2022/12/07 00:01:19;;;;;;;2.17;1.35;;;;;;;-0.35;90.28;92157.81;5092487;28;20040;-76
2022/12/07 00:03:46;;;;;;;2.13;1.42;;;;;;;-0.39;90.73;92159.25;5092848;28;20040;-75
2022/12/07 00:06:13;;;;;;;3.15;1.50;;;;;;;-0.39;91.14;92153.34;5093014;28;20089;-75
2022/12/07 00:08:39;;;;;;;2.55;1.33;;;;;;;-0.39;91.46;92158.47;5074686;28;20443;-75
2022/12/07 00:11:10;;;;;;;3.22;1.40;;;;;;;-0.43;91.56;92153.81;5092719;28;20040;-75
2022/12/07 00:13:36;;;;;;;2.65;1.55;;;;;;;-0.46;91.64;92153.47;5090588;28;20055;-76
2022/12/07 00:16:14;;;;;;;1.83;1.30;;;;;;;-0.47;91.69;92151.91;5090009;28;20028;-75
2022/12/07 00:18:40;;;;;;;2.20;1.42;;;;;;;-0.50;90.87;92147.97;5072763;28;20100;-75
2022/12/07 00:21:11;;;;;;;2.33;1.45;;;;;;;-0.47;91.01;92146.78;5090625;28;20498;-75
2022/12/07 00:23:38;;;;;;;2.45;1.40;;;;;;;-0.47;90.74;92146.78;5091474;28;20028;-75
2022/12/07 00:26:11;;;;;;;2.25;1.40;;;;;;;-0.48;91.20;92145.97;5090032;28;20028;-75
2022/12/07 00:28:37;;;;;;;2.90;1.38;;;;;;;-0.47;90.82;92141.63;5073047;28;20035;-75
2022/12/07 00:31:11;;;;;;;3.42;1.50;;;;;;;-0.49;90.99;92130.78;5090894;28;20032;-75
2022/12/07 00:33:38;;;;;;;1.63;1.23;;;;;;;-0.49;90.86;92128.22;5090326;28;20032;-75
2022/12/07 00:36:08;;;;;;;2.03;1.23;;;;;;;-0.51;91.69;92125.84;5074284;28;20058;-75
2022/12/07 00:38:35;;;;;;;1.80;1.20;;;;;;;-0.51;92.24;92115.56;5090927;28;20036;-75
2022/12/07 00:41:03;;;;;;;1.02;0.95;;;;;;;-0.53;93.31;92120.16;5092360;28;20056;-76
2022/12/07 00:43:29;;;;;;;1.50;1.08;;;;;;;-0.53;94.24;92117.59;5090369;28;20024;-76
2022/12/07 00:45:55;;;;;;;1.60;1.13;;;;;;;-0.48;94.80;92119.47;5090244;28;20039;-76
2022/12/07 00:48:21;;;;;;;1.25;1.08;;;;;;;-0.49;94.28;92113.56;5068443;28;20029;-76
2022/12/07 00:50:47;;;;;;;1.08;1.00;;;;;;;-0.51;95.53;92113.00;5071888;28;20029;-76
2022/12/07 00:53:13;;;;;;;2.75;1.10;;;;;;;-0.52;95.12;92108.88;5083538;28;20116;-75
2022/12/07 00:55:39;;;;;;;1.83;1.17;;;;;;;-0.52;94.83;92110.66;5090910;28;20118;-76
2022/12/07 00:58:04;;;;;;;1.33;1.20;;;;;;;-0.54;95.34;92108.31;5089014;28;20094;-76
2022/12/07 01:00:30;;;;;;;1.58;1.00;;;;;;;-0.56;96.73;92101.81;5084849;28;20111;-75
2022/12/07 01:02:56;;;;;;;1.58;1.00;;;;;;;-0.58;96.85;92109.78;5087586;28;20036;-76
2022/12/07 01:05:22;;;;;;;1.63;1.13;;;;;;;-0.61;96.73;92110.22;5089536;28;20024;-76
2022/12/07 01:07:47;;;;;;;1.45;1.10;;;;;;;-0.60;96.28;92121.31;5090173;28;20070;-76
2022/12/07 01:10:14;;;;;;;1.52;1.05;;;;;;;-0.66;96.15;92108.31;5090497;28;20072;-75
2022/12/07 01:12:39;;;;;;;0.88;0.88;;;;;;;-0.67;95.79;92111.13;5089128;28;20018;-76
2022/12/07 01:15:06;;;;;;;1.75;1.05;;;;;;;-0.70;96.26;92107.25;5089062;28;20039;-76
2022/12/07 01:17:32;;;;;;;1.27;1.00;;;;;;;-0.70;96.46;92114.94;5089259;28;20120;-76
2022/12/07 01:19:58;;;;;;;1.58;1.05;;;;;;;-0.71;95.97;92112.59;5070969;28;20189;-76
2022/12/07 01:22:24;;;;;;;1.13;0.88;;;;;;;-0.71;96.60;92118.50;5073348;28;20043;-76
2022/12/07 01:24:49;;;;;;;1.50;1.02;;;;;;;-0.70;97.63;92119.28;5089863;28;20031;-76
2022/12/07 01:27:15;;;;;;;1.42;1.10;;;;;;;-0.71;97.13;92121.09;5089552;28;20062;-75
2022/12/07 01:29:41;;;;;;;1.05;0.93;;;;;;;-0.69;96.81;92113.16;5088281;28;20036;-76
2022/12/07 01:32:06;;;;;;;1.60;1.10;;;;;;;-0.66;96.60;92110.13;5089551;28;20121;-76
2022/12/07 01:34:32;;;;;;;0.95;0.90;;;;;;;-0.65;96.84;92109.13;5071114;28;20553;-76
2022/12/07 01:36:58;;;;;;;1.25;1.05;;;;;;;-0.65;95.91;92109.91;5088237;28;20040;-76
2022/12/07 01:39:23;;;;;;;1.08;0.98;;;;;;;-0.66;97.01;92113.47;5089718;28;20065;-76
2022/12/07 01:41:49;;;;;;;1.45;0.98;;;;;;;-0.68;96.87;92107.75;5088844;28;20336;-76
2022/12/07 01:44:32;;;;;;;1.05;0.90;;;;;;;-0.70;97.14;92107.25;5082318;28;20072;-75
2022/12/07 01:47:01;;;;;;;0.90;0.90;;;;;;;-0.69;97.95;92103.66;5090216;28;20115;-76
2022/12/07 01:49:40;;;;;;;1.10;1.00;;;;;;;-0.69;98.79;92098.50;5087687;28;20055;-75
2022/12/07 01:52:17;;;;;;;1.73;1.30;;;;;;;-0.70;98.86;92114.16;5089238;28;20043;-75
2022/12/07 01:54:45;;;;;;;1.27;1.00;;;;;;;-0.71;98.46;92108.22;5089748;28;20059;-75
2022/12/07 01:57:13;;;;;;;1.42;1.00;;;;;;;-0.71;97.36;92105.66;5088659;28;20036;-75
2022/12/07 01:59:39;;;;;;;1.40;0.93;;;;;;;-0.71;97.78;92105.66;5089241;28;20371;-75
2022/12/07 02:02:10;;;;;;;0.90;0.90;;;;;;;-0.72;98.03;92093.81;5087242;28;20044;-76
2022/12/07 02:04:36;;;;;;;1.00;0.90;;;;;;;-0.70;97.34;92103.88;5089480;28;20028;-76
2022/12/07 02:07:03;;;;;;;1.75;1.10;;;;;;;-0.70;97.55;92102.09;5087865;28;20063;-76
2022/12/07 02:09:28;;;;;;;1.83;1.00;;;;;;;-0.66;97.80;92092.91;5090132;28;20515;-75
2022/12/07 02:11:55;;;;;;;3.15;1.25;;;;;;;-0.61;97.49;92094.00;5089994;28;20044;-75
2022/12/07 02:14:20;;;;;;;1.77;1.05;;;;;;;-0.60;97.36;92093.03;5087925;28;20081;-76
2022/12/07 02:17:01;;;;;;;1.20;1.00;;;;;;;-0.60;97.20;92091.22;5091039;28;20043;-76
2022/12/07 02:19:55;;;;;;;1.35;1.00;;;;;;;-0.58;98.27;92083.28;5087264;28;20036;-75
2022/12/07 02:22:24;;;;;;;1.65;1.20;;;;;;;-0.61;97.73;92074.22;5087224;28;20044;-76
2022/12/07 02:25:12;;;;;;;2.03;1.20;;;;;;;-0.67;97.18;92075.94;5087514;28;20051;-76
2022/12/07 02:27:56;;;;;;;1.20;1.10;;;;;;;-0.69;97.21;92072.78;5088924;28;20062;-75
2022/12/07 02:30:25;;;;;;;1.10;1.00;;;;;;;-0.72;96.99;92077.59;5087733;28;20089;-76
2022/12/07 02:32:57;;;;;;;1.60;1.20;;;;;;;-0.73;96.71;92071.69;5088077;28;20050;-76
2022/12/07 02:35:32;;;;;;;1.40;1.10;;;;;;;-0.78;96.97;92069.03;5088275;28;20432;-75
2022/12/07 02:38:10;;;;;;;1.65;1.17;;;;;;;-0.81;97.39;92072.06;5089957;28;20123;-76
2022/12/07 02:41:02;;;;;;;4.03;1.30;;;;;;;-0.85;97.38;92068.38;5089035;28;20405;-76
2022/12/07 02:43:39;;;;;;;2.27;1.40;;;;;;;-0.85;97.07;92073.50;5086904;28;20044;-75
2022/12/07 02:46:10;;;;;;;1.92;1.30;;;;;;;-0.86;97.15;92061.66;5088461;28;20110;-76
2022/12/07 02:48:38;;;;;;;2.20;1.30;;;;;;;-0.87;97.14;92066.00;5088314;28;20028;-76
2022/12/07 02:51:04;;;;;;;1.83;1.30;;;;;;;-0.86;96.62;92071.94;5090653;28;20043;-75
2022/12/07 02:53:42;;;;;;;2.17;1.17;;;;;;;-0.86;96.35;92071.94;5088307;28;20063;-75
2022/12/07 02:56:32;;;;;;;2.00;1.25;;;;;;;-0.87;96.62;92072.94;5088485;28;20032;-76
2022/12/07 02:59:06;;;;;;;1.55;1.30;;;;;;;-0.85;96.18;92065.78;5067721;28;20075;-75
2022/12/07 03:01:51;;;;;;;1.58;1.23;;;;;;;-0.87;96.12;92060.09;5086698;28;20044;-75
2022/12/07 03:04:35;;;;;;;1.67;1.25;;;;;;;-0.87;96.33;92060.88;5074806;28;20028;-75
2022/12/07 03:07:11;;;;;;;1.50;1.10;;;;;;;-0.87;95.82;92060.88;5085860;28;20039;-75
2022/12/07 03:09:52;;;;;;;2.50;1.52;;;;;;;-0.88;96.40;92058.53;5088698;28;20235;-75
2022/12/07 03:12:29;;;;;;;2.67;1.45;;;;;;;-0.87;96.42;92055.75;5088612;28;20101;-75
2022/12/07 03:15:09;;;;;;;3.05;1.40;;;;;;;-0.84;96.62;92057.06;5086790;28;20042;-75
2022/12/07 03:17:39;;;;;;;2.08;1.35;;;;;;;-0.86;97.00;92057.31;5087519;28;20089;-75
2022/12/07 03:20:07;;;;;;;1.30;1.10;;;;;;;-0.86;96.85;92052.19;5085456;28;20036;-75
2022/12/07 03:22:37;;;;;;;1.80;1.20;;;;;;;-0.89;97.04;92050.03;5088780;28;20107;-74
2022/12/07 03:25:08;;;;;;;2.08;1.30;;;;;;;-0.94;97.58;92060.22;5092005;28;20105;-75
2022/12/07 03:27:55;;;;;;;1.63;1.27;;;;;;;-0.96;97.65;92056.31;5091987;28;20036;-75
2022/12/07 03:30:30;;;;;;;1.77;1.20;;;;;;;-0.98;98.33;92058.34;5091426;28;20028;-75
2022/12/07 03:33:17;;;;;;;1.23;1.10;;;;;;;-1.00;97.04;92050.06;5093585;28;20039;-75
2022/12/07 03:35:49;;;;;;;2.15;1.30;;;;;;;-1.00;96.75;92042.34;5090826;28;20055;-75
2022/12/07 03:38:31;;;;;;;;;;;;;;;-1.03;97.30;92046.16;5091025;28;20036;-76
2022/12/07 03:41:01;;;;;;;1.77;1.17;;;;;;;-1.01;96.84;92038.22;5088715;28;20271;-76
2022/12/07 03:43:30;;;;;;;1.88;1.20;;;;;;;-1.01;96.76;92043.34;5093244;28;20115;-76
2022/12/07 03:46:14;;;;;;;1.77;1.23;;;;;;;-1.01;96.72;92046.72;5088245;28;20495;-76
2022/12/07 03:49:00;;;;;;;2.15;1.23;;;;;;;-1.01;97.48;92043.34;5090413;28;20059;-76
2022/12/07 03:52:06;;;;;;;1.88;1.30;;;;;;;-1.00;97.81;92039.78;5093161;28;20040;-75
2022/12/07 03:54:41;;;;;;;1.58;1.17;;;;;;;-1.00;97.56;92039.78;5084901;28;20054;-75
2022/12/07 03:57:09;;;;;;;1.95;1.30;;;;;;;-0.99;98.21;92025.94;5091849;28;20028;-75
2022/12/07 03:59:35;;;;;;;1.48;1.08;;;;;;;-1.00;98.25;92030.28;5073124;28;20039;-75
2022/12/07 04:02:04;;;;;;;2.97;1.30;;;;;;;-0.99;98.29;92029.28;5073329;28;20043;-75
2022/12/07 04:04:30;;;;;;;1.60;1.20;;;;;;;-1.01;98.68;92022.78;5091441;28;20032;-75
2022/12/07 04:06:55;;;;;;;2.03;1.20;;;;;;;-1.00;98.13;92029.50;5073471;28;20058;-75
2022/12/07 04:09:21;;;;;;;4.38;1.80;;;;;;;-1.00;98.88;92021.81;5088998;28;20078;-76
2022/12/07 04:11:47;;;;;;;2.13;1.33;;;;;;;-1.00;98.43;92019.22;5092562;28;20047;-75
2022/12/07 04:14:19;;;;;;;1.75;1.23;;;;;;;-0.97;98.99;92013.63;5091070;28;20016;-75
2022/12/07 04:16:56;;;;;;;3.83;1.20;;;;;;;-0.98;99.22;92004.38;5090781;28;20115;-75
2022/12/07 04:19:24;;;;;;;2.05;1.30;;;;;;;-1.00;98.88;92011.53;5073036;28;20028;-74
2022/12/07 04:21:50;;;;;;;1.60;1.13;;;;;;;-1.01;100.00;92009.94;5091169;28;20060;-74
2022/12/07 04:24:16;;;;;;;1.92;1.20;;;;;;;-1.02;100.00;92008.41;5089844;28;20149;-74
2022/12/07 04:26:42;;;;;;;2.35;1.30;;;;;;;-1.04;99.82;92003.47;5092196;28;20096;-75
2022/12/07 04:29:09;;;;;;;2.00;1.30;;;;;;;-1.05;99.43;92010.41;5091790;28;20028;-75
2022/12/07 04:31:35;;;;;;;3.53;1.63;;;;;;;-1.05;98.96;92007.84;5088540;28;20118;-75
2022/12/07 04:34:01;;;;;;;1.83;1.20;;;;;;;-1.04;99.22;92006.06;5077293;28;20123;-75
2022/12/07 04:36:27;;;;;;;1.27;1.10;;;;;;;-1.03;99.17;92009.41;5070149;28;20562;-76
2022/12/07 04:38:54;;;;;;;1.10;1.00;;;;;;;-1.05;98.94;92005.28;5085509;28;20119;-76
2022/12/07 04:41:26;;;;;;;1.38;1.00;;;;;;;-1.05;99.86;92007.84;5083436;28;20646;-76
2022/12/07 04:44:03;;;;;;;1.17;1.08;;;;;;;-1.07;99.91;91998.81;5088056;28;20032;-75
2022/12/07 04:46:30;;;;;;;1.20;1.10;;;;;;;-1.07;99.24;91999.59;5073825;28;20358;-75
2022/12/07 04:48:56;;;;;;;1.10;1.00;;;;;;;-1.10;100.00;92005.19;5098606;28;20043;-75
2022/12/07 04:53:54;;;;;;;1.35;1.10;;;;;;;-1.10;98.48;92005.19;5075124;28;20123;-75
2022/12/07 04:56:21;;;;;;;1.35;1.00;;;;;;;-1.09;98.90;92006.72;5082302;28;20501;-76
2022/12/07 04:58:48;;;;;;;0.98;0.93;;;;;;;-1.10;98.99;92002.63;5093148;28;20040;-75
2022/12/07 05:01:15;;;;;;;1.33;1.23;;;;;;;-1.11;99.09;92011.31;5088748;28;20043;-76
2022/12/07 05:03:40;;;;;;;3.42;1.40;;;;;;;-1.12;98.60;92009.75;5077351;28;20040;-76
2022/12/07 05:06:07;;;;;;;1.33;1.15;;;;;;;-1.13;98.78;92013.31;5079299;28;20378;-76
2022/12/07 05:08:33;;;;;;;1.10;1.00;;;;;;;-1.14;98.54;92004.06;5088905;28;20567;-75
2022/12/07 05:10:59;;;;;;;2.60;1.20;;;;;;;-1.12;98.29;92012.34;5081121;28;20031;-74
2022/12/07 05:13:26;;;;;;;1.80;1.23;;;;;;;-1.11;98.27;92005.41;5086328;28;20063;-75
2022/12/07 05:15:51;;;;;;;1.48;1.20;;;;;;;-1.13;98.37;92008.19;5090263;28;20251;-74
2022/12/07 05:18:17;;;;;;;1.65;1.13;;;;;;;-1.14;98.60;92005.88;5085534;28;20398;-75
2022/12/07 05:20:44;;;;;;;1.42;1.10;;;;;;;-1.14;98.24;92004.06;5082997;28;20067;-75
2022/12/07 05:23:10;;;;;;;1.70;1.20;;;;;;;-1.17;99.18;92001.97;5083053;28;20058;-76
2022/12/07 05:25:36;;;;;;;2.88;1.30;;;;;;;-1.17;98.49;92008.88;5080856;28;20028;-74
2022/12/07 05:28:02;;;;;;;1.50;1.20;;;;;;;-1.20;98.57;91999.81;5084964;28;20086;-75
2022/12/07 05:30:29;;;;;;;1.42;1.23;;;;;;;-1.23;99.15;92005.44;5084767;28;20528;-75
2022/12/07 05:32:55;;;;;;;2.08;1.20;;;;;;;-1.25;98.84;92002.31;5076751;28;20089;-75
2022/12/07 05:35:21;;;;;;;1.52;1.30;;;;;;;-1.26;98.60;92006.66;5088151;28;20044;-75
2022/12/07 05:37:46;;;;;;;1.65;1.10;;;;;;;-1.26;99.17;92008.47;5074339;28;20059;-74
2022/12/07 05:40:14;;;;;;;1.15;1.02;;;;;;;-1.31;98.61;91998.84;5080293;28;20068;-75
2022/12/07 05:42:39;;;;;;;1.58;1.20;;;;;;;-1.27;98.39;91999.94;5070924;28;20513;-74
2022/12/07 05:45:06;;;;;;;1.80;1.10;;;;;;;-1.27;98.56;92005.09;5077871;28;20044;-75
2022/12/07 05:47:31;;;;;;;1.33;1.10;;;;;;;-1.25;98.49;92002.31;5085399;28;20036;-75
2022/12/07 05:49:57;;;;;;;1.80;1.30;;;;;;;-1.27;97.80;92007.66;5085416;28;20043;-75
2022/12/07 05:52:22;;;;;;;1.23;1.10;;;;;;;-1.27;98.16;92005.09;5060511;28;20056;-75
2022/12/07 05:54:48;;;;;;;1.67;1.13;;;;;;;-1.29;98.78;92006.31;5087342;28;20051;-76
2022/12/07 05:57:15;;;;;;;1.85;1.30;;;;;;;-1.28;98.58;92010.47;5087425;28;20111;-75
2022/12/07 05:59:41;;;;;;;1.10;1.00;;;;;;;-1.30;98.16;92020.94;5080564;28;20598;-76
2022/12/07 06:02:09;;;;;;;1.52;1.20;;;;;;;-1.32;98.66;92017.06;5082185;28;20064;-76
2022/12/07 06:04:41;;;;;;;1.25;1.10;;;;;;;-1.35;98.10;92014.91;5085702;28;20040;-77
2022/12/07 06:07:08;;;;;;;1.77;1.25;;;;;;;-1.36;98.13;92016.72;5088021;28;20053;-75
2022/12/07 06:09:34;;;;;;;4.72;1.65;;;;;;;-1.35;97.76;92023.41;5086464;28;20114;-75
2022/12/07 06:14:44;;;;;;;3.90;2.20;;;;;;;-1.33;98.95;92012.91;5088307;28;20070;-76
2022/12/07 06:17:12;;;;;;;4.85;2.13;;;;;;;-1.34;97.72;92014.69;5088187;28;20440;-74
2022/12/07 06:19:37;;;;;;;2.90;1.67;;;;;;;-1.35;97.77;92018.28;5070529;28;20119;-74
2022/12/07 06:22:04;;;;;;;1.92;1.40;;;;;;;-1.36;97.36;92023.63;5080043;28;20463;-75
2022/12/07 06:24:31;;;;;;;1.95;1.35;;;;;;;-1.40;97.35;92019.94;5070171;28;20028;-76
2022/12/07 06:26:57;;;;;;;1.45;1.20;;;;;;;-1.40;96.22;92019.94;5072603;28;20061;-75
2022/12/07 06:29:22;;;;;;;3.72;1.60;;;;;;;-1.40;96.59;92019.94;5077104;28;20579;-75
2022/12/07 06:31:48;;;;;;;2.30;1.20;;;;;;;-1.38;95.99;92023.06;5080543;28;20044;-75
2022/12/07 06:34:17;;;;;;;1.60;1.30;;;;;;;-1.38;95.62;92017.94;5071343;28;20514;-75
2022/12/07 06:36:42;;;;;;;3.40;1.48;;;;;;;-1.35;95.72;92017.47;5070078;28;20033;-76
2022/12/07 06:39:08;;;;;;;10.27;5.45;;;;;;;-1.37;96.78;92016.94;5084462;28;20122;-75
2022/12/07 06:41:38;;;;;;;6.78;3.15;;;;;;;-1.38;96.82;92013.59;5086762;28;20067;-74
2022/12/07 06:44:05;;;;;;;2.80;1.67;;;;;;;-1.38;96.36;92017.94;5088696;28;20036;-75
2022/12/07 06:46:31;;;;;;;3.35;2.00;;;;;;;-1.36;96.36;92026.22;5086432;28;20039;-75
2022/12/07 06:48:57;;;;;;;3.08;1.60;;;;;;;-1.36;96.43;92021.06;5089324;28;20556;-74
2022/12/07 06:51:22;;;;;;;3.28;1.52;;;;;;;-1.33;96.62;92020.59;5089869;28;20036;-76
2022/12/07 06:53:48;;;;;;;2.13;1.35;;;;;;;-1.33;96.31;92020.59;5088833;28;20048;-77
2022/12/07 06:56:14;;;;;;;1.70;1.15;;;;;;;-1.28;96.86;92020.75;5087123;28;20513;-78
2022/12/07 06:58:40;;;;;;;3.97;2.40;;;;;;;-1.24;97.25;92019.25;5096544;28;20030;-78
2022/12/07 07:01:14;;;;;;;5.90;3.42;;;;;;;-1.22;96.88;92017.25;5072870;28;20044;-77
2022/12/07 07:03:40;;;;;;;13.23;5.75;;;;;;;-1.22;96.26;92016.47;5093321;28;20028;-77
2022/12/07 07:06:07;;;;;;;3.63;2.00;;;;;;;-1.18;96.44;92018.38;5076741;28;20539;-77
2022/12/07 07:08:33;;;;;;;1.85;1.33;;;;;;;-1.07;98.83;92017.56;5095055;28;20063;-77
2022/12/07 07:10:59;;;;;;;3.25;1.50;;;;;;;-1.02;97.99;92016.09;5093899;28;20063;-77
2022/12/07 07:13:24;;;;;;;1.35;1.20;;;;;;;-0.98;97.13;92023.13;5095743;28;20040;-77
2022/12/07 07:15:50;;;;;;;1.02;0.93;;;;;;;-0.81;96.55;92027.56;5094498;28;20393;-77
2022/12/07 07:18:16;;;;;;;1.67;1.10;;;;;;;-0.09;95.25;92025.28;5092849;28;20043;-76
2022/12/07 07:20:41;;;;;;;1.90;1.17;;;;;;;0.87;95.07;92034.69;5109855;28;20082;-76
2022/12/07 07:23:07;;;;;;;1.38;1.00;;;;;;;2.09;91.34;92026.72;5092987;28;20032;-77
2022/12/07 07:25:33;;;;;;;1.20;0.93;;;;;;;3.19;84.06;92028.00;5092863;28;20081;-77
2022/12/07 07:27:59;;;;;;;1.83;1.00;;;;;;;4.33;79.92;92023.63;5093455;28;20032;-77
2022/12/07 07:30:25;;;;;;;4.30;1.40;;;;;;;5.30;73.05;92029.75;5094573;28;20397;-77
2022/12/07 07:32:51;;;;;;;5.47;1.90;;;;;;;6.17;64.89;92029.34;5093432;28;20398;-77
2022/12/07 07:35:17;;;;;;;8.45;4.13;;;;;;;7.01;61.93;92030.00;5095210;28;20035;-78
2022/12/07 07:37:42;;;;;;;5.95;2.50;;;;;;;7.58;58.11;92027.59;5077212;28;20089;-78
2022/12/07 07:40:09;;;;;;;3.38;1.50;;;;;;;8.41;56.51;92028.13;5095504;28;20046;-78
2022/12/07 07:42:35;;;;;;;2.63;1.00;;;;;;;9.14;53.32;92021.47;5094182;28;20094;-78
2022/12/07 07:45:01;;;;;;;1.88;0.88;;;;;;;9.95;51.76;92021.00;5095418;28;20024;-78
2022/12/07 07:47:26;;;;;;;2.75;1.38;;;;;;;10.45;46.67;92022.06;5094250;28;20575;-78
2022/12/07 07:49:52;;;;;;;15.00;2.22;;;;;;;10.83;45.64;92022.53;5076912;28;20040;-78
2022/12/07 07:52:17;;;;;;;10.05;1.98;;;;;;;10.31;48.79;92029.97;5093542;28;20040;-78
2022/12/07 07:54:43;;;;;;;2.70;1.50;;;;;;;10.86;46.46;92027.16;5093735;28;20043;-78
2022/12/07 07:57:08;;;;;;;1.95;1.40;;;;;;;11.18;44.90;92027.94;5093842;28;20398;-78
2022/12/07 07:59:34;;;;;;;32.78;3.75;;;;;;;11.59;44.52;92026.91;5095204;28;20498;-78
2022/12/07 08:02:00;;;;;;;3.30;1.40;;;;;;;12.16;43.56;92024.31;5093707;28;20604;-78
2022/12/07 08:04:25;;;;;;;5.38;1.83;;;;;;;12.43;44.32;92025.13;5094661;28;20028;-78
2022/12/07 08:06:51;;;;;;;4.88;1.65;;;;;;;13.08;40.76;92024.16;5095589;28;20044;-79
2022/12/07 08:09:17;;;;;;;4.00;2.00;;;;;;;13.46;40.93;92033.19;5096443;28;20071;-79
2022/12/07 08:11:42;;;;;;;2.65;1.42;;;;;;;14.64;37.48;92032.47;5095390;28;20055;-79
2022/12/07 08:14:10;;;;;;;3.35;1.58;;;;;;;14.19;38.72;92038.31;5096340;28;20043;-79
2022/12/07 08:16:36;;;;;;;2.67;1.58;;;;;;;14.87;38.68;92026.84;5095329;28;20134;-79
2022/12/07 08:19:01;;;;;;;6.93;1.50;;;;;;;15.97;35.67;92032.38;5095954;28;20664;-79
2022/12/07 08:21:27;;;;;;;32.20;2.97;;;;;;;15.13;36.29;92031.88;5096341;28;20559;-79
2022/12/07 08:23:52;;;;;;;3.70;1.70;;;;;;;14.71;36.59;92027.44;5095569;28;20035;-79
2022/12/07 08:26:18;;;;;;;3.65;1.80;;;;;;;15.18;38.10;92035.09;5095580;28;20039;-79
2022/12/07 08:28:45;;;;;;;2.15;1.30;;;;;;;14.95;36.29;92031.25;5095333;28;20042;-79
2022/12/07 08:31:14;;;;;;;2.88;1.65;;;;;;;14.54;36.04;92030.16;5095134;28;20055;-78
2022/12/07 08:33:40;;;;;;;15.90;2.60;;;;;;;13.70;38.99;92035.28;5096108;28;20106;-78
2022/12/07 08:36:09;;;;;;;40.78;5.93;;;;;;;13.20;41.33;92041.13;5096371;28;20054;-79
2022/12/07 08:38:35;;;;;;;15.10;2.20;;;;;;;12.44;44.60;92042.41;5095621;28;20056;-79
2022/12/07 08:41:01;;;;;;;2.92;1.52;;;;;;;13.17;41.48;92036.47;5095602;28;20036;-78
2022/12/07 08:43:27;;;;;;;2.80;1.70;;;;;;;13.69;40.62;92041.63;5095644;28;20031;-78
2022/12/07 08:46:09;;;;;;;41.00;4.25;;;;;;;14.64;38.71;92048.25;5093985;28;20039;-78
2022/12/07 08:48:57;;;;;;;3.85;2.10;;;;;;;13.69;40.04;92041.63;5094696;28;20031;-78
2022/12/07 08:51:24;;;;;;;4.05;2.10;;;;;;;13.63;40.54;92048.16;5093903;28;20047;-78
2022/12/07 08:53:51;;;;;;;5.18;2.30;;;;;;;14.25;39.41;92050.19;5092327;28;20048;-77
2022/12/07 08:56:17;;;;;;;7.50;2.10;;;;;;;14.23;39.43;92051.59;5093687;28;20085;-78
2022/12/07 08:58:43;;;;;;;3.58;1.85;;;;;;;14.22;38.90;92053.44;5092889;28;20047;-78
2022/12/07 09:01:09;;;;;;;6.32;2.10;;;;;;;14.29;38.75;92053.72;5070554;28;20029;-78
2022/12/07 09:03:35;;;;;;;4.32;2.15;;;;;;;14.43;39.09;92055.34;5088860;28;20048;-78
2022/12/07 09:06:00;;;;;;;4.45;1.70;;;;;;;14.62;36.73;92053.06;5088451;28;20043;-78
2022/12/07 09:08:31;;;;;;;4.72;2.10;;;;;;;14.24;38.89;92058.41;5088456;28;20059;-77
2022/12/07 09:10:56;;;;;;;3.78;2.15;;;;;;;13.50;40.80;92052.53;5072575;28;20601;-77
2022/12/07 09:13:22;;;;;;;3.83;2.00;;;;;;;12.93;41.69;92050.13;5072736;28;20380;-77
2022/12/07 09:15:48;;;;;;;7.13;2.63;;;;;;;12.48;43.93;92045.97;5076575;28;20065;-78
2022/12/07 09:18:14;;;;;;;4.78;2.65;;;;;;;12.60;42.91;92056.63;5085769;28;20115;-77
2022/12/07 09:20:39;;;;;;;4.55;2.33;;;;;;;12.03;43.73;92048.81;5078041;28;20035;-78
2022/12/07 09:23:06;;;;;;;2.20;1.42;;;;;;;11.02;45.65;92054.50;5071310;28;20028;-79
2022/12/07 09:25:33;;;;;;;6.10;2.58;;;;;;;10.02;48.48;92049.38;5072663;28;20150;-78
2022/12/07 09:27:59;;;;;;;4.53;2.00;;;;;;;9.85;48.91;92052.56;5072596;28;20032;-78
2022/12/07 09:30:26;;;;;;;4.05;2.10;;;;;;;9.57;48.82;92044.75;5072434;28;20074;-78
2022/12/07 09:32:56;;;;;;;3.95;1.60;;;;;;;9.94;47.09;92044.81;5087088;28;20409;-78
2022/12/07 09:35:22;;;;;;;3.80;1.83;;;;;;;9.67;48.84;92046.38;5093701;28;20119;-79
2022/12/07 09:37:48;;;;;;;5.03;2.10;;;;;;;9.61;50.20;92044.91;5089980;28;20020;-78
2022/12/07 09:40:16;;;;;;;3.58;1.88;;;;;;;9.81;50.00;92048.97;5092114;28;20044;-78
2022/12/07 09:42:51;;;;;;;3.50;1.92;;;;;;;10.10;49.24;92053.91;5091708;28;20339;-78
2022/12/07 09:45:21;;;;;;;3.42;1.77;;;;;;;9.91;48.69;92048.03;5092656;28;20036;-79
2022/12/07 09:47:47;;;;;;;6.57;2.30;;;;;;;9.29;51.54;92051.75;5079748;28;20033;-79
2022/12/07 09:50:18;;;;;;;3.75;1.85;;;;;;;9.04;50.50;92052.22;5072186;28;20099;-77
2022/12/07 09:52:47;;;;;;;10.43;3.17;;;;;;;8.88;51.26;92052.44;5090515;28;20081;-78
2022/12/07 09:55:23;;;;;;;3.97;2.00;;;;;;;8.33;52.51;92060.00;5110769;28;20085;-78
2022/12/07 09:57:51;;;;;;;23.73;4.03;;;;;;;8.34;53.09;92049.31;5080877;28;20033;-77
2022/12/07 10:00:21;;;;;;;25.35;4.55;;;;;;;8.54;54.95;92045.66;5084834;28;20057;-78
2022/12/07 10:02:55;;;;;;;5.22;1.67;;;;;;;9.05;50.88;92053.75;5095376;28;20056;-77
2022/12/07 10:05:27;;;;;;;13.60;3.08;;;;;;;9.04;50.54;92050.38;5087446;28;20474;-77
2022/12/07 10:07:52;;;;;;;4.83;2.00;;;;;;;8.74;47.98;92049.03;5069679;28;20149;-77
2022/12/07 10:10:39;;;;;;;3.78;1.60;;;;;;;8.51;47.70;92048.84;5072273;28;20719;-78
2022/12/07 10:13:14;;;;;;;1.85;1.25;;;;;;;8.03;46.86;92038.50;5073895;28;20044;-78
2022/12/07 10:15:45;;;;;;;3.67;2.08;;;;;;;7.75;51.70;92036.81;5074188;28;20032;-78
2022/12/07 10:18:19;;;;;;;9.50;2.70;;;;;;;7.85;53.26;92039.28;5085500;28;20115;-78
2022/12/07 10:20:48;;;;;;;4.72;2.13;;;;;;;8.06;51.11;92032.75;5074651;28;20165;-79
2022/12/07 10:23:16;;;;;;;4.53;1.90;;;;;;;8.75;50.85;92021.88;5093304;28;20051;-79
2022/12/07 10:25:42;;;;;;;4.75;2.08;;;;;;;9.26;49.47;92015.78;5095387;28;20032;-79
2022/12/07 10:28:08;;;;;;;4.35;2.22;;;;;;;8.86;51.81;92019.88;5094721;28;20529;-78
2022/12/07 10:30:56;;;;;;;5.75;2.50;;;;;;;8.12;52.94;92028.22;5094967;28;20036;-79
2022/12/07 10:33:50;;;;;;;4.20;2.03;;;;;;;8.24;51.56;92019.97;5098913;28;20036;-79
2022/12/07 10:36:20;;;;;;;5.53;2.40;;;;;;;7.89;56.19;92016.81;5104346;28;20031;-78
2022/12/07 10:38:50;;;;;;;4.97;1.92;;;;;;;7.82;53.30;92013.78;5100647;28;20020;-80
2022/12/07 10:41:16;;;;;;;3.80;2.20;;;;;;;7.52;54.74;92015.69;5096041;28;20067;-78
2022/12/07 10:43:53;;;;;;;6.03;2.47;;;;;;;7.64;55.10;92012.69;5097982;28;20145;-79
2022/12/07 10:46:19;;;;;;;4.05;2.28;;;;;;;7.50;55.95;92012.59;5079862;28;20065;-79
2022/12/07 10:49:14;;;;;;;3.00;1.63;;;;;;;7.48;58.06;92012.09;5096223;28;20505;-79
2022/12/07 10:51:51;;;;;;;3.13;1.73;;;;;;;7.42;58.08;92015.81;5077658;28;20386;-78
2022/12/07 10:54:46;;;;;;;3.78;1.52;;;;;;;7.20;57.44;92006.66;5084569;28;20429;-79
2022/12/07 10:57:49;;;;;;;21.77;2.83;;;;;;;7.41;54.78;92003.84;5097082;28;20050;-79
2022/12/07 11:00:22;;;;;;;4.68;2.10;;;;;;;7.85;53.40;92005.38;5079782;28;20032;-80
2022/12/07 11:03:13;;;;;;;3.75;1.90;;;;;;;7.91;54.28;91996.47;5094528;28;20036;-80
2022/12/07 11:05:44;;;;;;;4.00;2.20;;;;;;;7.72;55.10;91999.81;5097923;28;20036;-79
2022/12/07 11:08:44;;;;;;;4.20;2.03;;;;;;;7.84;54.97;91999.41;5077346;28;20028;-79
2022/12/07 11:11:16;;;;;;;3.10;1.92;;;;;;;8.05;54.13;91994.69;5078479;28;20098;-78
2022/12/07 11:13:50;;;;;;;4.57;2.45;;;;;;;7.79;55.86;92003.91;5077014;28;20443;-79
2022/12/07 11:16:23;;;;;;;3.90;2.20;;;;;;;7.94;55.92;91990.69;5091077;28;20039;-79
2022/12/07 11:18:55;;;;;;;4.85;2.30;;;;;;;8.62;54.76;91980.84;5090478;28;20032;-80
2022/12/07 11:21:31;;;;;;;4.20;2.30;;;;;;;8.42;55.01;91980.13;5075534;28;20047;-80
2022/12/07 11:24:16;;;;;;;5.22;2.75;;;;;;;8.34;54.84;91978.88;5095399;28;20028;-81
2022/12/07 11:26:59;;;;;;;3.65;1.98;;;;;;;8.16;55.67;91981.53;5078083;28;20040;-81
2022/12/07 11:29:48;;;;;;;3.83;2.05;;;;;;;7.91;54.64;91978.97;5086225;28;20477;-81
2022/12/07 11:32:31;;;;;;;3.67;1.95;;;;;;;7.83;56.06;91978.84;5090185;28;20035;-81
2022/12/07 11:35:17;;;;;;;4.00;2.15;;;;;;;7.78;54.48;91973.69;5094920;28;20493;-80
2022/12/07 11:37:44;;;;;;;4.40;2.20;;;;;;;7.56;53.66;91977.59;5077710;28;20032;-80
2022/12/07 11:40:24;;;;;;;4.05;2.17;;;;;;;7.47;55.82;91972.22;5076697;28;20032;-81
2022/12/07 11:43:04;;;;;;;5.13;2.30;;;;;;;7.60;55.71;91965.56;5087814;28;20048;-81
2022/12/07 11:45:34;;;;;;;6.18;2.22;;;;;;;7.74;54.73;91965.66;5093392;28;20131;-82
2022/12/07 11:48:11;;;;;;;2.95;1.65;;;;;;;7.94;54.69;91964.63;5080408;28;20086;-80
2022/12/07 11:50:49;;;;;;;3.92;1.73;;;;;;;7.59;55.31;91966.66;5083915;28;20060;-79
2022/12/07 11:53:23;;;;;;;3.63;2.10;;;;;;;7.36;56.70;91964.81;5076632;28;20051;-79